createdAt,value
2018-03-14T00:01:04.404Z,4.70
2018-03-14T00:03:31.892Z,4.73
2018-03-14T00:05:59.399Z,4.78
2018-03-14T00:08:26.867Z,4.77
2018-03-14T00:10:54.393Z,4.76
2018-03-14T00:13:21.883Z,4.88
2018-03-14T00:15:49.378Z,4.83
2018-03-14T00:18:16.870Z,4.75
2018-03-14T00:20:44.395Z,4.73
2018-03-14T00:23:11.875Z,4.74
2018-03-14T00:25:39.379Z,4.78
2018-03-14T00:28:06.855Z,4.82
2018-03-14T00:30:34.365Z,4.84
2018-03-14T00:33:01.838Z,4.82
2018-03-14T00:35:29.342Z,4.84
2018-03-14T00:37:56.831Z,4.80
2018-03-14T00:40:24.379Z,4.82
2018-03-14T00:42:51.804Z,4.91
2018-03-14T00:45:19.308Z,4.88
2018-03-14T00:47:46.783Z,4.87
2018-03-14T00:50:14.280Z,4.77
2018-03-14T00:52:41.777Z,4.74
2018-03-14T00:55:09.296Z,4.83
2018-03-14T00:57:36.775Z,4.88
2018-03-14T01:00:04.256Z,4.92
2018-03-14T01:02:31.747Z,4.93
2018-03-14T01:04:59.332Z,4.94
2018-03-14T01:07:26.832Z,4.97
2018-03-14T01:09:54.321Z,5.00
2018-03-14T01:12:21.811Z,5.03
2018-03-14T01:14:49.288Z,5.02
2018-03-14T01:17:16.790Z,5.04
2018-03-14T01:19:44.276Z,5.02
2018-03-14T01:22:11.782Z,4.99
2018-03-14T01:24:39.272Z,4.99
2018-03-14T01:27:06.754Z,5.05
2018-03-14T01:29:34.236Z,5.07
2018-03-14T01:32:01.739Z,5.07
2018-03-14T01:34:29.268Z,5.10
2018-03-14T01:36:56.715Z,5.08
2018-03-14T01:39:24.205Z,5.11
2018-03-14T01:41:51.713Z,5.08
2018-03-14T01:44:19.219Z,5.15
2018-03-14T01:46:46.743Z,5.16
2018-03-14T01:49:14.219Z,5.19
2018-03-14T01:51:41.723Z,5.22
2018-03-14T01:54:09.202Z,5.14
2018-03-14T01:56:36.712Z,5.15
2018-03-14T01:59:04.193Z,5.19
2018-03-14T02:01:32.471Z,5.18
2018-03-14T02:03:59.956Z,5.10
2018-03-14T02:06:27.451Z,5.07
2018-03-14T02:08:54.942Z,5.06
2018-03-14T02:11:22.446Z,5.05
2018-03-14T02:13:49.950Z,5.03
2018-03-14T02:16:17.453Z,5.06
2018-03-14T02:18:44.939Z,5.14
2018-03-14T02:21:12.432Z,5.10
2018-03-14T02:23:39.930Z,5.18
2018-03-14T02:26:07.411Z,5.19
2018-03-14T02:28:34.926Z,5.23
2018-03-14T02:31:02.410Z,5.25
2018-03-14T02:33:30.139Z,5.25
2018-03-14T02:35:57.619Z,5.28
2018-03-14T02:38:25.119Z,5.27
2018-03-14T02:40:52.608Z,5.30
2018-03-14T02:43:20.111Z,5.30
2018-03-14T02:45:47.598Z,5.30
2018-03-14T02:48:15.410Z,5.24
2018-03-14T02:50:42.871Z,5.23
2018-03-14T02:53:10.365Z,5.15
2018-03-14T02:55:37.835Z,5.07
2018-03-14T02:58:05.319Z,5.01
2018-03-14T03:00:32.788Z,5.00
2018-03-14T03:03:00.270Z,4.91
2018-03-14T03:05:27.730Z,4.89
2018-03-14T03:07:55.208Z,4.96
2018-03-14T03:10:22.734Z,4.88
2018-03-14T03:12:50.239Z,4.76
2018-03-14T03:15:17.664Z,4.54
2018-03-14T03:17:45.140Z,4.31
2018-03-14T03:20:12.603Z,4.21
2018-03-14T03:22:40.078Z,4.14
2018-03-14T03:25:07.535Z,4.17
2018-03-14T03:27:35.025Z,4.16
2018-03-14T03:30:02.493Z,4.14
2018-03-14T03:32:29.987Z,4.07
2018-03-14T03:34:57.448Z,3.96
2018-03-14T03:37:24.930Z,3.84
2018-03-14T03:39:52.407Z,3.64
2018-03-14T03:42:19.935Z,3.48
2018-03-14T03:44:47.400Z,3.41
2018-03-14T03:47:14.873Z,3.32
2018-03-14T03:49:42.352Z,3.28
2018-03-14T03:52:09.821Z,3.23
2018-03-14T03:54:37.363Z,3.14
2018-03-14T03:57:04.830Z,3.09
2018-03-14T03:59:32.308Z,3.46
2018-03-14T04:01:59.791Z,3.78
2018-03-14T04:04:27.279Z,3.88
2018-03-14T04:06:54.741Z,3.89
2018-03-14T04:09:22.225Z,3.88
2018-03-14T04:11:49.695Z,3.85
2018-03-14T04:14:17.186Z,3.83
2018-03-14T04:16:44.655Z,3.86
2018-03-14T04:19:12.140Z,3.91
2018-03-14T04:21:39.611Z,3.94
2018-03-14T04:24:07.094Z,3.96
2018-03-14T04:26:34.551Z,4.03
2018-03-14T04:29:02.059Z,4.01
2018-03-14T04:31:29.575Z,4.05
2018-03-14T04:33:57.019Z,4.08
2018-03-14T04:36:24.499Z,4.32
2018-03-14T04:38:51.982Z,4.32
2018-03-14T04:41:19.485Z,4.36
2018-03-14T04:43:46.967Z,4.43
2018-03-14T04:46:14.434Z,4.65
2018-03-14T04:48:41.914Z,4.69
2018-03-14T04:51:09.371Z,4.57
2018-03-14T04:53:36.851Z,4.42
2018-03-14T04:56:04.311Z,4.33
2018-03-14T04:58:31.805Z,4.24
2018-03-14T05:00:59.575Z,4.15
2018-03-14T05:03:27.041Z,4.10
2018-03-14T05:05:54.539Z,4.01
2018-03-14T05:08:22.006Z,3.96
2018-03-14T05:10:49.496Z,3.93
2018-03-14T05:13:16.971Z,3.90
2018-03-14T05:15:44.455Z,3.85
2018-03-14T05:18:11.920Z,3.75
2018-03-14T05:20:39.399Z,3.69
2018-03-14T05:23:06.855Z,3.64
2018-03-14T05:25:34.331Z,3.53
2018-03-14T05:28:02.560Z,3.61
2018-03-14T05:30:30.047Z,3.59
2018-03-14T05:32:57.528Z,3.48
2018-03-14T05:35:25.006Z,3.37
2018-03-14T05:37:52.467Z,3.26
2018-03-14T05:40:19.975Z,3.29
2018-03-14T05:42:47.431Z,3.26
2018-03-14T05:45:14.919Z,3.22
2018-03-14T05:47:42.380Z,2.98
2018-03-14T05:50:09.885Z,2.87
2018-03-14T05:52:37.938Z,2.85
2018-03-14T05:55:05.418Z,2.73
2018-03-14T05:57:32.878Z,2.66
2018-03-14T06:00:00.357Z,2.58
2018-03-14T06:02:27.843Z,2.58
2018-03-14T06:04:55.343Z,2.49
2018-03-14T06:07:22.898Z,2.70
2018-03-14T06:09:50.385Z,2.85
2018-03-14T06:12:17.855Z,3.04
2018-03-14T06:14:45.610Z,2.99
2018-03-14T06:17:13.112Z,3.08
2018-03-14T06:19:40.642Z,3.13
2018-03-14T06:22:08.133Z,3.22
2018-03-14T06:24:35.612Z,3.19
2018-03-14T06:27:03.399Z,3.12
2018-03-14T06:29:30.861Z,3.16
2018-03-14T06:31:58.403Z,3.12
2018-03-14T06:34:25.865Z,3.05
2018-03-14T06:36:53.351Z,2.97
2018-03-14T06:39:20.817Z,3.01
2018-03-14T06:41:48.303Z,2.98
2018-03-14T06:44:15.770Z,3.08
2018-03-14T06:46:43.257Z,3.10
2018-03-14T06:49:10.721Z,3.20
2018-03-14T06:51:38.207Z,3.29
2018-03-14T06:54:05.672Z,3.43
2018-03-14T06:56:33.203Z,3.55
2018-03-14T06:59:12.576Z,3.59
2018-03-14T07:01:51.975Z,3.67
2018-03-14T07:04:31.267Z,3.69
2018-03-14T07:06:58.749Z,3.85
2018-03-14T07:09:26.211Z,3.91
2018-03-14T07:11:53.711Z,4.00
2018-03-14T07:14:21.182Z,4.16
2018-03-14T07:16:48.659Z,4.11
2018-03-14T07:19:16.115Z,4.13
2018-03-14T07:21:43.620Z,4.28
2018-03-14T07:24:11.083Z,4.40
2018-03-14T07:26:38.573Z,4.46
2018-03-14T07:29:06.069Z,4.48
2018-03-14T07:31:33.563Z,4.61
2018-03-14T07:34:01.034Z,4.75
2018-03-14T07:36:28.514Z,4.87
2018-03-14T07:38:55.987Z,5.07
2018-03-14T07:41:23.470Z,5.27
2018-03-14T07:43:50.962Z,5.44
2018-03-14T07:46:18.444Z,5.59
2018-03-14T07:48:45.914Z,5.65
2018-03-14T07:51:13.416Z,5.69
2018-03-14T07:53:40.901Z,5.88
2018-03-14T07:56:08.363Z,6.07
2018-03-14T07:58:35.863Z,6.21
2018-03-14T08:01:04.106Z,6.26
2018-03-14T08:03:38.133Z,6.36
2018-03-14T08:06:05.604Z,6.50
2018-03-14T08:08:33.096Z,6.56
2018-03-14T08:11:00.560Z,6.68
2018-03-14T08:13:28.084Z,6.77
2018-03-14T08:15:55.515Z,6.85
2018-03-14T08:18:23.005Z,6.69
2018-03-14T08:20:50.477Z,6.83
2018-03-14T08:23:17.954Z,6.42
2018-03-14T08:25:45.426Z,6.84
2018-03-14T08:28:12.904Z,6.71
2018-03-14T08:30:40.363Z,6.95
2018-03-14T08:33:07.873Z,7.15
2018-03-14T08:35:35.406Z,7.30
2018-03-14T08:38:02.891Z,7.02
2018-03-14T08:40:30.358Z,7.19
2018-03-14T08:42:57.854Z,7.10
2018-03-14T08:45:25.321Z,7.17
2018-03-14T08:47:52.804Z,7.15
2018-03-14T08:50:20.291Z,7.05
2018-03-14T08:52:47.766Z,7.20
2018-03-14T08:55:15.235Z,7.01
2018-03-14T08:57:42.727Z,7.12
2018-03-14T09:00:10.189Z,6.91
2018-03-14T09:02:37.691Z,6.86
2018-03-14T09:05:05.163Z,7.03
2018-03-14T09:07:32.650Z,7.33
2018-03-14T09:10:00.576Z,7.02
2018-03-14T09:12:28.035Z,6.74
2018-03-14T09:14:55.496Z,6.92
2018-03-14T09:17:22.990Z,6.87
2018-03-14T09:19:50.447Z,7.14
2018-03-14T09:22:17.907Z,7.42
2018-03-14T09:24:45.407Z,7.60
2018-03-14T09:27:12.876Z,7.47
2018-03-14T09:29:40.365Z,7.47
2018-03-14T09:32:07.822Z,7.48
2018-03-14T09:34:35.295Z,7.62
2018-03-14T09:37:02.792Z,7.87
2018-03-14T09:39:30.266Z,8.05
2018-03-14T09:41:57.729Z,8.09
2018-03-14T09:44:25.216Z,8.26
2018-03-14T09:46:52.675Z,8.13
2018-03-14T09:49:20.155Z,8.15
2018-03-14T09:51:47.644Z,8.13
2018-03-14T09:54:15.127Z,8.23
2018-03-14T09:56:42.587Z,7.70
2018-03-14T09:59:10.067Z,7.93
2018-03-14T10:01:37.579Z,8.00
2018-03-14T10:04:05.071Z,8.18
2018-03-14T10:06:32.535Z,8.17
2018-03-14T10:09:00.019Z,8.16
2018-03-14T10:11:27.580Z,8.26
2018-03-14T10:13:55.062Z,8.24
2018-03-14T10:16:22.519Z,8.34
2018-03-14T10:18:51.005Z,8.42
2018-03-14T10:21:18.480Z,8.49
2018-03-14T10:23:45.966Z,8.64
2018-03-14T10:26:13.451Z,8.79
2018-03-14T10:28:40.937Z,8.79
2018-03-14T10:31:08.426Z,8.92
2018-03-14T10:33:35.914Z,9.17
2018-03-14T10:36:03.384Z,9.32
2018-03-14T10:38:30.919Z,9.41
2018-03-14T10:40:58.383Z,9.14
2018-03-14T10:43:25.871Z,9.32
2018-03-14T10:45:53.327Z,9.50
2018-03-14T10:48:20.783Z,9.39
2018-03-14T10:50:48.274Z,9.34
2018-03-14T10:53:15.740Z,9.46
2018-03-14T10:55:43.219Z,9.35
2018-03-14T10:58:10.679Z,9.49
2018-03-14T11:00:43.628Z,9.69
2018-03-14T11:03:16.592Z,9.98
2018-03-14T11:05:44.079Z,10.19
2018-03-14T11:08:11.540Z,9.90
2018-03-14T11:10:39.028Z,9.98
2018-03-14T11:13:06.507Z,10.19
2018-03-14T11:15:34.014Z,10.22
2018-03-14T11:18:01.504Z,10.48
2018-03-14T11:20:28.994Z,10.76
2018-03-14T11:22:56.468Z,10.43
2018-03-14T11:25:23.961Z,10.24
2018-03-14T11:27:51.439Z,10.27
2018-03-14T11:30:18.946Z,9.59
2018-03-14T11:32:46.435Z,9.79
2018-03-14T11:35:13.967Z,10.19
2018-03-14T11:37:41.468Z,10.23
2018-03-14T11:40:08.984Z,10.61
2018-03-14T11:42:36.461Z,10.76
2018-03-14T11:45:03.943Z,10.50
2018-03-14T11:47:31.407Z,10.79
2018-03-14T11:49:58.907Z,10.73
2018-03-14T11:52:26.373Z,10.21
2018-03-14T11:54:53.855Z,10.49
2018-03-14T11:57:21.373Z,10.46
2018-03-14T11:59:48.849Z,10.42
2018-03-14T12:02:16.310Z,10.29
2018-03-14T12:04:43.797Z,10.51
2018-03-14T12:07:11.264Z,10.92
2018-03-14T12:09:38.741Z,10.70
2018-03-14T12:12:06.211Z,11.22
2018-03-14T12:14:33.718Z,11.52
2018-03-14T12:17:01.200Z,11.93
2018-03-14T12:19:28.675Z,12.11
2018-03-14T12:21:56.164Z,12.05
2018-03-14T12:24:23.627Z,11.88
2018-03-14T12:26:51.123Z,12.31
2018-03-14T12:29:18.582Z,12.37
2018-03-14T12:31:46.775Z,12.63
2018-03-14T12:34:14.235Z,12.48
2018-03-14T12:36:41.715Z,12.54
2018-03-14T12:39:09.195Z,12.06
2018-03-14T12:41:36.679Z,12.60
2018-03-14T12:44:04.134Z,13.11
2018-03-14T12:46:31.623Z,13.40
2018-03-14T12:48:59.087Z,13.62
2018-03-14T12:51:26.567Z,13.65
2018-03-14T12:53:54.025Z,13.61
2018-03-14T12:56:21.506Z,13.45
2018-03-14T12:58:48.967Z,13.65
2018-03-14T13:01:16.452Z,13.25
2018-03-14T13:03:43.915Z,13.72
2018-03-14T13:06:11.400Z,13.90
2018-03-14T13:08:38.864Z,13.91
2018-03-14T13:11:06.345Z,14.26
2018-03-14T13:13:33.797Z,14.32
2018-03-14T13:16:01.271Z,14.92
2018-03-14T13:18:28.732Z,15.31
2018-03-14T13:20:56.206Z,15.45
2018-03-14T13:23:23.688Z,15.75
2018-03-14T13:25:51.158Z,15.55
2018-03-14T13:28:18.614Z,16.53
2018-03-14T13:30:46.103Z,17.84
2018-03-14T13:33:13.555Z,18.96
2018-03-14T13:35:41.039Z,19.58
2018-03-14T13:38:08.500Z,19.64
2018-03-14T13:40:36.004Z,20.36
2018-03-14T13:43:03.468Z,20.94
2018-03-14T13:45:30.935Z,21.97
2018-03-14T13:47:58.405Z,21.17
2018-03-14T13:50:25.868Z,21.64
2018-03-14T13:52:53.361Z,21.90
2018-03-14T13:55:20.839Z,22.44
2018-03-14T13:57:48.318Z,21.33
2018-03-14T14:00:15.787Z,20.55
2018-03-14T14:02:43.251Z,19.72
2018-03-14T14:05:10.712Z,19.57
2018-03-14T14:07:38.191Z,19.94
2018-03-14T14:10:05.655Z,20.52
2018-03-14T14:12:33.154Z,22.24
2018-03-14T14:15:00.611Z,21.21
2018-03-14T14:17:28.105Z,21.61
2018-03-14T14:19:55.568Z,20.79
2018-03-14T14:22:23.049Z,21.39
2018-03-14T14:24:50.528Z,22.29
2018-03-14T14:27:18.936Z,22.30
2018-03-14T14:29:46.400Z,21.61
2018-03-14T14:32:13.871Z,21.58
2018-03-14T14:34:41.344Z,20.40
2018-03-14T14:37:08.820Z,18.99
2018-03-14T14:39:36.284Z,17.83
2018-03-14T14:42:03.764Z,16.22
2018-03-14T14:44:31.231Z,16.98
2018-03-14T14:46:59.704Z,17.07
2018-03-14T14:49:27.201Z,16.30
2018-03-14T14:51:54.680Z,16.03
2018-03-14T14:54:22.144Z,17.11
2018-03-14T14:56:49.623Z,17.71
2018-03-14T14:59:17.080Z,17.26
2018-03-14T15:01:44.555Z,16.98
2018-03-14T15:04:12.051Z,16.43
2018-03-14T15:06:39.498Z,16.02
2018-03-14T15:09:06.984Z,17.86
2018-03-14T15:11:34.451Z,18.45
2018-03-14T15:14:01.920Z,17.37
2018-03-14T15:16:29.386Z,16.50
2018-03-14T15:18:56.865Z,15.99
2018-03-14T15:21:24.399Z,15.41
2018-03-14T15:23:51.828Z,15.69
2018-03-14T15:26:19.288Z,17.80
2018-03-14T15:28:47.336Z,19.42
2018-03-14T15:31:14.807Z,19.88
2018-03-14T15:33:42.288Z,17.51
2018-03-14T15:36:09.748Z,16.35
2018-03-14T15:38:37.223Z,15.70
2018-03-14T15:41:04.691Z,15.02
2018-03-14T15:43:32.182Z,14.50
2018-03-14T15:45:59.640Z,14.04
2018-03-14T15:48:27.131Z,13.74
2018-03-14T15:50:54.591Z,13.50
2018-03-14T15:53:22.074Z,12.88
2018-03-14T15:55:49.536Z,12.63
2018-03-14T15:58:17.006Z,12.42
2018-03-14T16:00:44.476Z,12.64
2018-03-14T16:03:11.956Z,12.72
2018-03-14T16:05:39.430Z,12.73
2018-03-14T16:08:07.229Z,12.56
2018-03-14T16:10:34.688Z,12.48
2018-03-14T16:13:02.179Z,12.30
2018-03-14T16:15:29.660Z,12.10
2018-03-14T16:17:57.175Z,12.28
2018-03-14T16:20:24.683Z,12.46
2018-03-14T16:22:52.167Z,12.52
2018-03-14T16:25:19.629Z,12.48
2018-03-14T16:27:47.120Z,12.39
2018-03-14T16:30:14.607Z,12.32
2018-03-14T16:32:42.070Z,12.32
2018-03-14T16:35:09.551Z,11.82
2018-03-14T16:37:37.008Z,11.92
2018-03-14T16:40:04.495Z,11.72
2018-03-14T16:42:31.964Z,11.44
2018-03-14T16:44:59.451Z,11.34
2018-03-14T16:47:26.911Z,11.52
2018-03-14T16:49:54.398Z,11.60
2018-03-14T16:52:21.864Z,11.54
2018-03-14T16:54:49.343Z,11.42
2018-03-14T16:57:16.808Z,11.29
2018-03-14T16:59:44.288Z,11.20
2018-03-14T17:02:11.747Z,11.04
2018-03-14T17:04:39.627Z,10.87
2018-03-14T17:07:07.082Z,10.72
2018-03-14T17:09:34.551Z,10.53
2018-03-14T17:12:02.010Z,10.40
2018-03-14T17:14:30.265Z,10.25
2018-03-14T17:16:57.731Z,10.06
2018-03-14T17:19:25.203Z,9.88
2018-03-14T17:21:52.655Z,9.72
2018-03-14T17:24:20.127Z,9.55
2018-03-14T17:26:47.575Z,9.42
2018-03-14T17:29:15.139Z,9.30
2018-03-14T17:31:42.619Z,9.17
2018-03-14T17:34:10.096Z,9.06
2018-03-14T17:36:37.558Z,8.92
2018-03-14T17:39:05.039Z,8.76
2018-03-14T17:41:32.980Z,8.60
2018-03-14T17:44:00.451Z,8.48
2018-03-14T17:46:27.926Z,8.34
2018-03-14T17:48:55.503Z,8.19
2018-03-14T17:51:22.982Z,8.05
2018-03-14T17:53:50.459Z,7.93
2018-03-14T17:56:17.949Z,7.84
2018-03-14T17:58:45.410Z,7.71
2018-03-14T18:01:12.900Z,7.63
2018-03-14T18:03:40.364Z,7.52
2018-03-14T18:06:07.891Z,7.45
2018-03-14T18:08:35.343Z,7.36
2018-03-14T18:11:02.822Z,7.26
2018-03-14T18:13:30.280Z,7.18
2018-03-14T18:15:57.761Z,7.11
2018-03-14T18:18:25.213Z,7.11
2018-03-14T18:20:52.688Z,7.01
2018-03-14T18:23:20.365Z,6.94
2018-03-14T18:25:47.848Z,6.89
2018-03-14T18:28:15.301Z,6.90
2018-03-14T18:30:42.787Z,6.84
2018-03-14T18:33:10.243Z,6.82
2018-03-14T18:35:37.711Z,6.82
2018-03-14T18:38:05.168Z,6.84
2018-03-14T18:40:32.645Z,6.74
2018-03-14T18:43:00.101Z,6.66
2018-03-14T18:45:27.570Z,6.46
2018-03-14T18:47:55.019Z,6.46
2018-03-14T18:50:22.491Z,6.46
2018-03-14T18:52:49.946Z,6.42
2018-03-14T18:55:17.420Z,6.46
2018-03-14T18:57:44.867Z,6.43
2018-03-14T19:00:12.343Z,6.38
2018-03-14T19:02:39.795Z,6.41
2018-03-14T19:05:07.259Z,6.45
2018-03-14T19:07:34.716Z,6.51
2018-03-14T19:10:02.184Z,6.59
2018-03-14T19:12:29.659Z,6.58
2018-03-14T19:14:57.161Z,6.55
2018-03-14T19:17:24.611Z,6.50
2018-03-14T19:19:52.071Z,6.50
2018-03-14T19:22:19.563Z,6.45
2018-03-14T19:24:47.022Z,6.43
2018-03-14T19:27:14.556Z,6.41
2018-03-14T19:29:42.011Z,6.37
2018-03-14T19:32:09.803Z,6.33
2018-03-14T19:34:37.282Z,6.27
2018-03-14T19:37:04.756Z,6.27
2018-03-14T19:39:32.212Z,6.18
2018-03-14T19:41:59.804Z,6.16
2018-03-14T19:44:27.247Z,6.16
2018-03-14T19:46:54.734Z,6.16
2018-03-14T19:49:22.179Z,6.15
2018-03-14T19:51:49.647Z,6.13
2018-03-14T19:54:17.105Z,6.12
2018-03-14T19:56:45.832Z,6.16
2018-03-14T19:59:13.292Z,6.14
2018-03-14T20:01:40.959Z,6.08
2018-03-14T20:04:14.435Z,6.02
2018-03-14T20:06:41.908Z,5.96
2018-03-14T20:09:14.378Z,5.91
2018-03-14T20:14:48.118Z,5.77
2018-03-14T20:19:53.064Z,5.68
2018-03-14T20:22:27.526Z,5.63
2018-03-14T20:24:54.998Z,5.59
2018-03-14T20:27:25.308Z,5.54
2018-03-14T20:29:53.944Z,5.45
2018-03-14T20:32:24.130Z,5.39
2018-03-14T20:37:32.885Z,5.24
2018-03-14T20:40:00.378Z,5.17
2018-03-14T20:42:29.140Z,5.11
2018-03-14T20:45:01.103Z,5.04
2018-03-14T20:47:29.403Z,4.94
2018-03-14T20:49:59.897Z,4.83
2018-03-14T20:52:29.726Z,4.76
2018-03-14T20:55:01.461Z,4.76
2018-03-14T20:57:28.965Z,4.74
2018-03-14T21:00:00.996Z,4.74
2018-03-14T21:05:03.705Z,4.79
2018-03-14T21:07:32.487Z,4.77
2018-03-14T21:10:05.934Z,4.85
2018-03-14T21:12:33.555Z,4.91
2018-03-14T21:15:01.896Z,4.88
2018-03-14T21:17:33.580Z,4.90
2018-03-14T21:22:36.225Z,4.89
2018-03-14T21:25:04.530Z,4.86
2018-03-14T21:27:33.175Z,4.88
2018-03-14T21:30:03.035Z,4.89
2018-03-14T21:32:35.332Z,4.86
2018-03-14T21:37:37.206Z,4.78
2018-03-14T21:40:04.840Z,4.74
2018-03-14T21:42:32.340Z,4.70
2018-03-14T21:44:59.842Z,4.67
2018-03-14T21:47:27.327Z,4.68
2018-03-14T21:49:54.800Z,4.69
2018-03-14T21:52:22.312Z,4.68
2018-03-14T21:54:49.783Z,4.66
2018-03-14T21:57:18.679Z,4.64
2018-03-14T21:59:46.138Z,4.64
2018-03-14T22:02:13.657Z,4.62
2018-03-14T22:04:41.093Z,4.59
2018-03-14T22:07:08.551Z,4.56
2018-03-14T22:09:36.031Z,4.48
2018-03-14T22:12:03.513Z,4.41
2018-03-14T22:14:31.116Z,4.38
2018-03-14T22:16:58.491Z,4.31
2018-03-14T22:19:25.977Z,4.34
2018-03-14T22:21:53.443Z,4.31
2018-03-14T22:24:20.932Z,4.26
2018-03-14T22:26:48.411Z,4.23
2018-03-14T22:29:15.892Z,4.24
2018-03-14T22:31:43.359Z,4.23
2018-03-14T22:34:10.850Z,4.21
2018-03-14T22:36:38.306Z,4.15
2018-03-14T22:39:05.788Z,4.08
2018-03-14T22:41:33.254Z,4.01
2018-03-14T22:44:00.735Z,4.01
2018-03-14T22:46:28.202Z,4.00
2018-03-14T22:48:55.690Z,4.13
2018-03-14T22:51:23.151Z,4.16
2018-03-14T22:53:50.631Z,4.24
2018-03-14T22:56:18.099Z,4.29
2018-03-14T22:58:45.605Z,4.36
2018-03-14T23:01:13.068Z,4.44
2018-03-14T23:03:40.550Z,4.53
2018-03-14T23:06:08.015Z,4.58
2018-03-14T23:08:35.514Z,4.54
2018-03-14T23:11:02.975Z,4.52
2018-03-14T23:13:30.454Z,4.50
2018-03-14T23:15:57.916Z,4.49
2018-03-14T23:18:25.397Z,4.50
2018-03-14T23:20:52.861Z,4.51
2018-03-14T23:23:20.324Z,4.49
2018-03-14T23:25:47.803Z,4.45
2018-03-14T23:28:15.267Z,4.45
2018-03-14T23:30:42.748Z,4.41
2018-03-14T23:33:10.203Z,4.46
2018-03-14T23:35:37.698Z,4.43
2018-03-14T23:38:05.147Z,4.33
2018-03-14T23:40:32.628Z,4.27
2018-03-14T23:43:00.108Z,4.26
2018-03-14T23:45:27.601Z,4.34
2018-03-14T23:47:55.057Z,4.33
2018-03-14T23:50:22.564Z,4.30
2018-03-14T23:52:50.029Z,4.30
2018-03-14T23:55:17.512Z,4.28
2018-03-14T23:57:44.972Z,4.27
